sensor_id;sensor_type;location;lat;lon;timestamp;temperature;humidity
68354;DHT22;55274;43.060;25.618;2023-08-21T09:50:41;39.80;32.40
68354;DHT22;55274;43.060;25.618;2023-08-21T09:53:10;39.60;32.80
68354;DHT22;55274;43.060;25.618;2023-08-21T09:55:39;39.70;32.90
68354;DHT22;55274;43.060;25.618;2023-08-21T09:58:06;39.70;32.80
68354;DHT22;55274;43.060;25.618;2023-08-21T10:00:35;39.70;33.50
68354;DHT22;55274;43.060;25.618;2023-08-21T10:03:11;39.70;32.20
68354;DHT22;55274;43.060;25.618;2023-08-21T10:05:40;39.80;33.30
68354;DHT22;55274;43.060;25.618;2023-08-21T10:08:07;40.10;33.00
68354;DHT22;55274;43.060;25.618;2023-08-21T10:10:36;40.10;33.70
68354;DHT22;55274;43.060;25.618;2023-08-21T10:13:03;39.90;33.40
68354;DHT22;55274;43.060;25.618;2023-08-21T10:15:31;39.90;32.20
68354;DHT22;55274;43.060;25.618;2023-08-21T10:18:20;40.10;32.90
68354;DHT22;55274;43.060;25.618;2023-08-21T10:20:47;40.40;33.30
68354;DHT22;55274;43.060;25.618;2023-08-21T10:23:34;40.50;32.80
68354;DHT22;55274;43.060;25.618;2023-08-21T10:26:06;40.60;31.40
68354;DHT22;55274;43.060;25.618;2023-08-21T10:31:39;40.50;30.80
68354;DHT22;55274;43.060;25.618;2023-08-21T10:34:07;40.40;31.40
68354;DHT22;55274;43.060;25.618;2023-08-21T10:39:14;40.70;30.00
68354;DHT22;55274;43.060;25.618;2023-08-21T10:41:40;40.80;30.00
68354;DHT22;55274;43.060;25.618;2023-08-21T10:44:06;40.60;30.40
68354;DHT22;55274;43.060;25.618;2023-08-21T10:46:52;40.60;31.10
68354;DHT22;55274;43.060;25.618;2023-08-21T10:49:18;40.50;30.40
68354;DHT22;55274;43.060;25.618;2023-08-21T10:51:44;40.70;30.70
68354;DHT22;55274;43.060;25.618;2023-08-21T10:54:13;40.70;29.70
68354;DHT22;55274;43.060;25.618;2023-08-21T10:56:41;40.60;30.20
68354;DHT22;55274;43.060;25.618;2023-08-21T10:59:07;40.60;30.60
68354;DHT22;55274;43.060;25.618;2023-08-21T11:01:45;40.40;30.60
68354;DHT22;55274;43.060;25.618;2023-08-21T11:04:13;40.40;30.40
68354;DHT22;55274;43.060;25.618;2023-08-21T11:06:39;40.20;30.70
68354;DHT22;55274;43.060;25.618;2023-08-21T11:09:12;40.10;31.40
68354;DHT22;55274;43.060;25.618;2023-08-21T11:11:40;39.90;31.00
68354;DHT22;55274;43.060;25.618;2023-08-21T11:14:08;40.00;30.80
68354;DHT22;55274;43.060;25.618;2023-08-21T11:16:34;40.40;30.40
68354;DHT22;55274;43.060;25.618;2023-08-21T11:19:04;40.50;31.10
68354;DHT22;55274;43.060;25.618;2023-08-21T11:21:31;40.60;30.40
68354;DHT22;55274;43.060;25.618;2023-08-21T11:23:56;40.60;30.00
68354;DHT22;55274;43.060;25.618;2023-08-21T11:26:25;40.50;30.00
68354;DHT22;55274;43.060;25.618;2023-08-21T11:28:51;40.40;30.70
68354;DHT22;55274;43.060;25.618;2023-08-21T11:31:17;40.40;30.70
68354;DHT22;55274;43.060;25.618;2023-08-21T11:33:50;40.50;30.40
68354;DHT22;55274;43.060;25.618;2023-08-21T11:36:16;40.50;30.00
68354;DHT22;55274;43.060;25.618;2023-08-21T11:38:41;40.70;30.20
68354;DHT22;55274;43.060;25.618;2023-08-21T11:41:07;40.60;30.30
68354;DHT22;55274;43.060;25.618;2023-08-21T11:43:41;40.30;30.90
68354;DHT22;55274;43.060;25.618;2023-08-21T11:46:08;40.50;31.10
68354;DHT22;55274;43.060;25.618;2023-08-21T11:48:38;40.60;30.50
68354;DHT22;55274;43.060;25.618;2023-08-21T11:51:04;40.70;30.00
68354;DHT22;55274;43.060;25.618;2023-08-21T11:53:39;40.60;30.20
68354;DHT22;55274;43.060;25.618;2023-08-21T11:56:16;40.40;31.10
68354;DHT22;55274;43.060;25.618;2023-08-21T11:58:46;40.30;30.50
68354;DHT22;55274;43.060;25.618;2023-08-21T12:01:19;40.30;30.40
68354;DHT22;55274;43.060;25.618;2023-08-21T12:03:45;40.50;30.20
68354;DHT22;55274;43.060;25.618;2023-08-21T12:06:12;40.50;30.10
68354;DHT22;55274;43.060;25.618;2023-08-21T12:08:39;40.40;31.00
68354;DHT22;55274;43.060;25.618;2023-08-21T12:11:05;40.40;30.80
68354;DHT22;55274;43.060;25.618;2023-08-21T12:13:31;40.40;30.80
68354;DHT22;55274;43.060;25.618;2023-08-21T12:15:57;40.40;30.40
68354;DHT22;55274;43.060;25.618;2023-08-21T12:18:23;40.50;29.90
68354;DHT22;55274;43.060;25.618;2023-08-21T12:20:49;40.40;30.00
68354;DHT22;55274;43.060;25.618;2023-08-21T12:23:15;40.40;30.50
68354;DHT22;55274;43.060;25.618;2023-08-21T12:25:40;40.40;29.30
68354;DHT22;55274;43.060;25.618;2023-08-21T12:28:07;40.60;29.50
68354;DHT22;55274;43.060;25.618;2023-08-21T12:30:34;40.70;29.20
68354;DHT22;55274;43.060;25.618;2023-08-21T12:33:00;40.90;29.40
68354;DHT22;55274;43.060;25.618;2023-08-21T12:35:26;41.20;29.20
68354;DHT22;55274;43.060;25.618;2023-08-21T12:37:57;41.00;28.80
68354;DHT22;55274;43.060;25.618;2023-08-21T12:40:23;40.90;28.70
68354;DHT22;55274;43.060;25.618;2023-08-21T12:42:49;40.80;28.50
68354;DHT22;55274;43.060;25.618;2023-08-21T12:45:16;40.60;29.20
68354;DHT22;55274;43.060;25.618;2023-08-21T12:47:42;40.40;29.30
68354;DHT22;55274;43.060;25.618;2023-08-21T12:50:08;40.10;30.20
68354;DHT22;55274;43.060;25.618;2023-08-21T12:52:34;39.80;30.10
68354;DHT22;55274;43.060;25.618;2023-08-21T12:55:00;39.30;30.90
68354;DHT22;55274;43.060;25.618;2023-08-21T12:57:29;38.50;33.80
68354;DHT22;55274;43.060;25.618;2023-08-21T12:59:55;37.50;37.40
68354;DHT22;55274;43.060;25.618;2023-08-21T13:02:21;36.70;38.50
68354;DHT22;55274;43.060;25.618;2023-08-21T13:04:49;36.30;38.50
68354;DHT22;55274;43.060;25.618;2023-08-21T13:07:15;36.20;38.80
68354;DHT22;55274;43.060;25.618;2023-08-21T13:09:40;36.00;39.10
68354;DHT22;55274;43.060;25.618;2023-08-21T13:12:06;35.90;39.30
68354;DHT22;55274;43.060;25.618;2023-08-21T13:14:34;35.80;40.00
68354;DHT22;55274;43.060;25.618;2023-08-21T13:17:00;35.70;39.30
68354;DHT22;55274;43.060;25.618;2023-08-21T13:19:25;35.70;39.60
68354;DHT22;55274;43.060;25.618;2023-08-21T13:21:51;35.60;40.10
68354;DHT22;55274;43.060;25.618;2023-08-21T13:24:17;35.50;40.60
68354;DHT22;55274;43.060;25.618;2023-08-21T13:26:43;35.30;40.80
68354;DHT22;55274;43.060;25.618;2023-08-21T13:29:09;35.20;41.80
68354;DHT22;55274;43.060;25.618;2023-08-21T13:31:35;35.10;41.90
68354;DHT22;55274;43.060;25.618;2023-08-21T13:34:00;35.10;41.70
68354;DHT22;55274;43.060;25.618;2023-08-21T13:36:27;35.00;41.60
68354;DHT22;55274;43.060;25.618;2023-08-21T13:38:53;35.00;41.70
68354;DHT22;55274;43.060;25.618;2023-08-21T13:41:19;34.80;41.80
68354;DHT22;55274;43.060;25.618;2023-08-21T13:43:44;34.70;42.00
68354;DHT22;55274;43.060;25.618;2023-08-21T13:46:10;34.70;42.60
68354;DHT22;55274;43.060;25.618;2023-08-21T13:48:36;34.70;43.10
68354;DHT22;55274;43.060;25.618;2023-08-21T13:51:02;34.60;43.60
68354;DHT22;55274;43.060;25.618;2023-08-21T13:53:28;34.30;44.60
68354;DHT22;55274;43.060;25.618;2023-08-21T13:55:53;34.20;44.50
68354;DHT22;55274;43.060;25.618;2023-08-21T13:58:20;34.20;45.90
68354;DHT22;55274;43.060;25.618;2023-08-21T14:00:46;34.10;47.00
68354;DHT22;55274;43.060;25.618;2023-08-21T14:03:12;34.00;47.90
68354;DHT22;55274;43.060;25.618;2023-08-21T14:05:38;34.00;48.00
68354;DHT22;55274;43.060;25.618;2023-08-21T14:08:04;33.80;48.50
68354;DHT22;55274;43.060;25.618;2023-08-21T14:10:30;33.90;47.60
68354;DHT22;55274;43.060;25.618;2023-08-21T14:12:56;33.90;46.90
68354;DHT22;55274;43.060;25.618;2023-08-21T14:15:23;33.90;46.80
68354;DHT22;55274;43.060;25.618;2023-08-21T14:17:49;34.20;47.00
68354;DHT22;55274;43.060;25.618;2023-08-21T14:20:15;34.30;46.30
68354;DHT22;55274;43.060;25.618;2023-08-21T14:22:41;34.40;46.10
68354;DHT22;55274;43.060;25.618;2023-08-21T14:25:08;34.60;46.80
68354;DHT22;55274;43.060;25.618;2023-08-21T14:27:34;34.60;46.80
68354;DHT22;55274;43.060;25.618;2023-08-21T14:29:59;34.70;46.70
68354;DHT22;55274;43.060;25.618;2023-08-21T14:32:25;34.80;46.70
68354;DHT22;55274;43.060;25.618;2023-08-21T14:34:52;34.80;47.10
68354;DHT22;55274;43.060;25.618;2023-08-21T14:37:21;34.90;46.60
68354;DHT22;55274;43.060;25.618;2023-08-21T14:39:49;34.90;47.00
68354;DHT22;55274;43.060;25.618;2023-08-21T14:42:15;35.00;47.60
68354;DHT22;55274;43.060;25.618;2023-08-21T14:44:41;35.00;47.90
68354;DHT22;55274;43.060;25.618;2023-08-21T14:47:07;35.20;47.60
68354;DHT22;55274;43.060;25.618;2023-08-21T14:49:32;35.20;47.20
68354;DHT22;55274;43.060;25.618;2023-08-21T14:51:59;35.30;48.30
68354;DHT22;55274;43.060;25.618;2023-08-21T14:54:24;35.30;47.70
68354;DHT22;55274;43.060;25.618;2023-08-21T14:56:51;35.40;47.10
68354;DHT22;55274;43.060;25.618;2023-08-21T14:59:17;35.50;46.20
68354;DHT22;55274;43.060;25.618;2023-08-21T15:01:42;35.60;46.10
68354;DHT22;55274;43.060;25.618;2023-08-21T15:04:08;35.70;45.80
68354;DHT22;55274;43.060;25.618;2023-08-21T15:06:35;35.70;46.80
68354;DHT22;55274;43.060;25.618;2023-08-21T15:09:01;35.70;49.40
68354;DHT22;55274;43.060;25.618;2023-08-21T15:11:27;35.60;50.90
68354;DHT22;55274;43.060;25.618;2023-08-21T15:13:53;35.50;50.20
68354;DHT22;55274;43.060;25.618;2023-08-21T15:16:19;35.50;50.40
68354;DHT22;55274;43.060;25.618;2023-08-21T15:18:44;35.50;50.80
68354;DHT22;55274;43.060;25.618;2023-08-21T15:21:13;35.50;48.40
68354;DHT22;55274;43.060;25.618;2023-08-21T15:23:38;35.60;46.70
68354;DHT22;55274;43.060;25.618;2023-08-21T15:26:04;35.50;46.30
68354;DHT22;55274;43.060;25.618;2023-08-21T15:28:30;35.50;47.10
68354;DHT22;55274;43.060;25.618;2023-08-21T15:30:55;35.40;47.80
68354;DHT22;55274;43.060;25.618;2023-08-21T15:33:21;35.30;48.70
68354;DHT22;55274;43.060;25.618;2023-08-21T15:35:47;35.20;49.80
68354;DHT22;55274;43.060;25.618;2023-08-21T15:38:13;35.10;50.30
68354;DHT22;55274;43.060;25.618;2023-08-21T15:40:39;35.00;51.50
68354;DHT22;55274;43.060;25.618;2023-08-21T15:43:07;34.80;52.70
68354;DHT22;55274;43.060;25.618;2023-08-21T15:45:33;34.70;53.20
68354;DHT22;55274;43.060;25.618;2023-08-21T15:47:58;34.60;53.40
68354;DHT22;55274;43.060;25.618;2023-08-21T15:50:24;34.50;53.30
68354;DHT22;55274;43.060;25.618;2023-08-21T15:52:50;34.50;52.80
68354;DHT22;55274;43.060;25.618;2023-08-21T15:55:16;34.50;51.80
68354;DHT22;55274;43.060;25.618;2023-08-21T15:57:42;34.50;53.50
68354;DHT22;55274;43.060;25.618;2023-08-21T16:00:10;34.40;54.10
68354;DHT22;55274;43.060;25.618;2023-08-21T16:02:37;34.20;56.20
68354;DHT22;55274;43.060;25.618;2023-08-21T16:05:03;34.00;56.60
68354;DHT22;55274;43.060;25.618;2023-08-21T16:07:29;33.90;56.20
68354;DHT22;55274;43.060;25.618;2023-08-21T16:09:56;33.90;52.50
68354;DHT22;55274;43.060;25.618;2023-08-21T16:12:21;33.80;52.10
68354;DHT22;55274;43.060;25.618;2023-08-21T16:14:47;33.70;57.90
68354;DHT22;55274;43.060;25.618;2023-08-21T16:17:13;33.50;59.50
68354;DHT22;55274;43.060;25.618;2023-08-21T16:19:39;33.20;60.20
68354;DHT22;55274;43.060;25.618;2023-08-21T16:22:05;33.10;60.70
68354;DHT22;55274;43.060;25.618;2023-08-21T16:24:30;33.00;60.40
68354;DHT22;55274;43.060;25.618;2023-08-21T16:26:56;32.90;59.60
68354;DHT22;55274;43.060;25.618;2023-08-21T16:29:22;32.80;59.70
68354;DHT22;55274;43.060;25.618;2023-08-21T16:31:51;32.70;56.90
68354;DHT22;55274;43.060;25.618;2023-08-21T16:34:18;32.70;54.60
68354;DHT22;55274;43.060;25.618;2023-08-21T16:36:44;32.70;55.50
68354;DHT22;55274;43.060;25.618;2023-08-21T16:39:10;32.70;54.90
68354;DHT22;55274;43.060;25.618;2023-08-21T16:41:36;32.70;57.40
68354;DHT22;55274;43.060;25.618;2023-08-21T16:44:03;32.50;57.80
68354;DHT22;55274;43.060;25.618;2023-08-21T16:46:29;32.40;58.10
68354;DHT22;55274;43.060;25.618;2023-08-21T16:48:55;32.30;57.90
68354;DHT22;55274;43.060;25.618;2023-08-21T16:51:20;32.20;56.20
68354;DHT22;55274;43.060;25.618;2023-08-21T16:53:46;32.10;55.90
68354;DHT22;55274;43.060;25.618;2023-08-21T16:56:12;32.00;55.20
68354;DHT22;55274;43.060;25.618;2023-08-21T16:58:38;31.90;61.40
68354;DHT22;55274;43.060;25.618;2023-08-21T17:01:03;31.70;61.20
68354;DHT22;55274;43.060;25.618;2023-08-21T17:03:29;31.50;60.80
68354;DHT22;55274;43.060;25.618;2023-08-21T17:05:55;31.30;61.70
68354;DHT22;55274;43.060;25.618;2023-08-21T17:08:21;31.30;61.40
68354;DHT22;55274;43.060;25.618;2023-08-21T17:10:47;31.20;63.10
68354;DHT22;55274;43.060;25.618;2023-08-21T17:13:12;31.00;64.20
68354;DHT22;55274;43.060;25.618;2023-08-21T17:15:38;30.90;62.50
68354;DHT22;55274;43.060;25.618;2023-08-21T17:18:04;30.80;63.70
68354;DHT22;55274;43.060;25.618;2023-08-21T17:20:30;30.70;64.20
68354;DHT22;55274;43.060;25.618;2023-08-21T17:22:57;30.60;64.80
68354;DHT22;55274;43.060;25.618;2023-08-21T17:25:23;30.50;65.40
68354;DHT22;55274;43.060;25.618;2023-08-21T17:27:49;30.30;66.00
68354;DHT22;55274;43.060;25.618;2023-08-21T17:30:15;30.10;66.20
68354;DHT22;55274;43.060;25.618;2023-08-21T17:32:41;30.00;66.10
68354;DHT22;55274;43.060;25.618;2023-08-21T17:35:07;29.80;64.20
68354;DHT22;55274;43.060;25.618;2023-08-21T17:37:33;29.70;61.00
68354;DHT22;55274;43.060;25.618;2023-08-21T17:39:58;29.70;64.80
68354;DHT22;55274;43.060;25.618;2023-08-21T17:42:26;29.60;66.20
68354;DHT22;55274;43.060;25.618;2023-08-21T17:44:51;29.40;66.80
68354;DHT22;55274;43.060;25.618;2023-08-21T17:47:17;29.20;66.40
68354;DHT22;55274;43.060;25.618;2023-08-21T17:49:44;29.20;66.10
68354;DHT22;55274;43.060;25.618;2023-08-21T17:52:11;29.20;65.70
68354;DHT22;55274;43.060;25.618;2023-08-21T17:54:37;29.10;63.90
68354;DHT22;55274;43.060;25.618;2023-08-21T17:57:02;28.90;66.60
68354;DHT22;55274;43.060;25.618;2023-08-21T17:59:28;28.80;67.00
68354;DHT22;55274;43.060;25.618;2023-08-21T18:01:54;28.80;67.60
68354;DHT22;55274;43.060;25.618;2023-08-21T18:04:21;28.70;68.20
68354;DHT22;55274;43.060;25.618;2023-08-21T18:06:47;28.60;68.40
68354;DHT22;55274;43.060;25.618;2023-08-21T18:09:13;28.50;68.20
68354;DHT22;55274;43.060;25.618;2023-08-21T18:11:39;28.50;68.30
68354;DHT22;55274;43.060;25.618;2023-08-21T18:14:05;28.40;68.40
68354;DHT22;55274;43.060;25.618;2023-08-21T18:16:31;28.30;69.30
68354;DHT22;55274;43.060;25.618;2023-08-21T18:18:56;28.20;69.30
68354;DHT22;55274;43.060;25.618;2023-08-21T18:21:22;28.20;69.70
68354;DHT22;55274;43.060;25.618;2023-08-21T18:23:48;28.10;70.40
68354;DHT22;55274;43.060;25.618;2023-08-21T18:26:14;28.00;71.10
68354;DHT22;55274;43.060;25.618;2023-08-21T18:28:39;27.90;70.60
68354;DHT22;55274;43.060;25.618;2023-08-21T18:31:06;27.90;70.50
68354;DHT22;55274;43.060;25.618;2023-08-21T18:33:32;27.80;70.00
68354;DHT22;55274;43.060;25.618;2023-08-21T18:35:59;27.70;69.90
68354;DHT22;55274;43.060;25.618;2023-08-21T18:38:26;27.60;70.80
68354;DHT22;55274;43.060;25.618;2023-08-21T18:40:52;27.60;70.50
68354;DHT22;55274;43.060;25.618;2023-08-21T18:43:19;27.60;71.00
68354;DHT22;55274;43.060;25.618;2023-08-21T18:45:45;27.50;71.00
68354;DHT22;55274;43.060;25.618;2023-08-21T18:48:17;27.40;71.30
68354;DHT22;55274;43.060;25.618;2023-08-21T18:50:44;27.30;71.80
68354;DHT22;55274;43.060;25.618;2023-08-21T18:53:11;27.30;72.70
68354;DHT22;55274;43.060;25.618;2023-08-21T18:55:42;27.10;72.30
68354;DHT22;55274;43.060;25.618;2023-08-21T18:58:09;27.20;71.90
68354;DHT22;55274;43.060;25.618;2023-08-21T19:00:36;27.00;72.70
68354;DHT22;55274;43.060;25.618;2023-08-21T19:03:02;27.00;72.50
68354;DHT22;55274;43.060;25.618;2023-08-21T19:05:29;27.00;72.40
68354;DHT22;55274;43.060;25.618;2023-08-21T19:07:55;27.10;72.50
68354;DHT22;55274;43.060;25.618;2023-08-21T19:10:21;27.00;73.60
68354;DHT22;55274;43.060;25.618;2023-08-21T19:12:49;26.90;73.60
68354;DHT22;55274;43.060;25.618;2023-08-21T19:15:14;26.80;73.50
68354;DHT22;55274;43.060;25.618;2023-08-21T19:17:41;26.60;74.20
68354;DHT22;55274;43.060;25.618;2023-08-21T19:20:07;26.50;74.40
68354;DHT22;55274;43.060;25.618;2023-08-21T19:22:34;26.60;73.90
68354;DHT22;55274;43.060;25.618;2023-08-21T19:25:01;26.50;74.20
68354;DHT22;55274;43.060;25.618;2023-08-21T19:27:27;26.40;74.50
68354;DHT22;55274;43.060;25.618;2023-08-21T19:29:53;26.30;74.40
68354;DHT22;55274;43.060;25.618;2023-08-21T19:32:18;26.20;74.50
68354;DHT22;55274;43.060;25.618;2023-08-21T19:34:47;26.30;74.50
68354;DHT22;55274;43.060;25.618;2023-08-21T19:37:13;26.30;74.40
68354;DHT22;55274;43.060;25.618;2023-08-21T19:39:39;26.20;74.50
68354;DHT22;55274;43.060;25.618;2023-08-21T19:42:05;26.20;75.10
68354;DHT22;55274;43.060;25.618;2023-08-21T19:44:31;26.00;75.30
68354;DHT22;55274;43.060;25.618;2023-08-21T19:46:59;26.00;75.40
68354;DHT22;55274;43.060;25.618;2023-08-21T19:49:25;26.00;75.70
68354;DHT22;55274;43.060;25.618;2023-08-21T19:51:52;26.00;76.30
68354;DHT22;55274;43.060;25.618;2023-08-21T19:54:17;25.90;76.20
68354;DHT22;55274;43.060;25.618;2023-08-21T19:56:43;25.70;76.60
68354;DHT22;55274;43.060;25.618;2023-08-21T19:59:09;25.70;76.70
68354;DHT22;55274;43.060;25.618;2023-08-21T20:01:37;25.60;76.90
68354;DHT22;55274;43.060;25.618;2023-08-21T20:04:03;25.50;77.30
68354;DHT22;55274;43.060;25.618;2023-08-21T20:06:29;25.50;77.50
68354;DHT22;55274;43.060;25.618;2023-08-21T20:08:56;25.40;77.60
68354;DHT22;55274;43.060;25.618;2023-08-21T20:11:22;25.30;78.20
68354;DHT22;55274;43.060;25.618;2023-08-21T20:13:48;25.20;78.50
68354;DHT22;55274;43.060;25.618;2023-08-21T20:16:14;25.20;78.50
68354;DHT22;55274;43.060;25.618;2023-08-21T20:18:40;25.10;78.80
68354;DHT22;55274;43.060;25.618;2023-08-21T20:21:06;25.10;79.10
68354;DHT22;55274;43.060;25.618;2023-08-21T20:23:32;25.10;79.00
68354;DHT22;55274;43.060;25.618;2023-08-21T20:25:59;25.10;79.10
68354;DHT22;55274;43.060;25.618;2023-08-21T20:28:25;25.10;79.00
68354;DHT22;55274;43.060;25.618;2023-08-21T20:30:51;25.00;79.50
68354;DHT22;55274;43.060;25.618;2023-08-21T20:33:17;24.90;79.70
68354;DHT22;55274;43.060;25.618;2023-08-21T20:35:43;24.80;79.80
68354;DHT22;55274;43.060;25.618;2023-08-21T20:38:09;24.90;79.90
68354;DHT22;55274;43.060;25.618;2023-08-21T20:40:35;24.90;79.90
68354;DHT22;55274;43.060;25.618;2023-08-21T20:43:01;24.80;80.40
68354;DHT22;55274;43.060;25.618;2023-08-21T20:45:28;24.80;80.60
68354;DHT22;55274;43.060;25.618;2023-08-21T20:47:54;24.80;80.60
68354;DHT22;55274;43.060;25.618;2023-08-21T20:50:20;24.70;80.90
68354;DHT22;55274;43.060;25.618;2023-08-21T20:52:46;24.50;81.30
68354;DHT22;55274;43.060;25.618;2023-08-21T20:55:13;24.50;81.40
68354;DHT22;55274;43.060;25.618;2023-08-21T20:57:39;24.40;81.60
68354;DHT22;55274;43.060;25.618;2023-08-21T21:00:07;24.40;82.20
68354;DHT22;55274;43.060;25.618;2023-08-21T21:02:37;24.40;82.10
68354;DHT22;55274;43.060;25.618;2023-08-21T21:05:03;24.40;82.30
68354;DHT22;55274;43.060;25.618;2023-08-21T21:07:29;24.40;82.10
68354;DHT22;55274;43.060;25.618;2023-08-21T21:09:55;24.40;82.60
68354;DHT22;55274;43.060;25.618;2023-08-21T21:12:21;24.40;83.00
68354;DHT22;55274;43.060;25.618;2023-08-21T21:14:46;24.40;82.90
68354;DHT22;55274;43.060;25.618;2023-08-21T21:17:13;24.40;82.90
68354;DHT22;55274;43.060;25.618;2023-08-21T21:19:39;24.40;83.20
68354;DHT22;55274;43.060;25.618;2023-08-21T21:22:05;24.20;83.20
68354;DHT22;55274;43.060;25.618;2023-08-21T21:24:31;24.20;83.10
68354;DHT22;55274;43.060;25.618;2023-08-21T21:26:56;24.10;83.30
68354;DHT22;55274;43.060;25.618;2023-08-21T21:29:22;24.10;83.20
68354;DHT22;55274;43.060;25.618;2023-08-21T21:31:48;24.10;83.30
68354;DHT22;55274;43.060;25.618;2023-08-21T21:34:14;24.10;83.40
68354;DHT22;55274;43.060;25.618;2023-08-21T21:36:39;24.00;83.80
68354;DHT22;55274;43.060;25.618;2023-08-21T21:39:09;23.90;84.20
68354;DHT22;55274;43.060;25.618;2023-08-21T21:41:36;23.80;84.30
68354;DHT22;55274;43.060;25.618;2023-08-21T21:44:03;23.80;84.50
68354;DHT22;55274;43.060;25.618;2023-08-21T21:46:29;23.80;84.70
68354;DHT22;55274;43.060;25.618;2023-08-21T21:48:57;23.70;84.70
68354;DHT22;55274;43.060;25.618;2023-08-21T21:51:23;23.80;84.60
68354;DHT22;55274;43.060;25.618;2023-08-21T21:53:49;23.80;84.40
68354;DHT22;55274;43.060;25.618;2023-08-21T21:56:15;23.70;85.00
68354;DHT22;55274;43.060;25.618;2023-08-21T21:58:41;23.70;85.30
68354;DHT22;55274;43.060;25.618;2023-08-21T22:01:07;23.60;85.30
68354;DHT22;55274;43.060;25.618;2023-08-21T22:03:33;23.60;85.70
68354;DHT22;55274;43.060;25.618;2023-08-21T22:06:00;23.50;86.20
68354;DHT22;55274;43.060;25.618;2023-08-21T22:08:27;23.50;86.20
68354;DHT22;55274;43.060;25.618;2023-08-21T22:10:53;23.50;86.20
68354;DHT22;55274;43.060;25.618;2023-08-21T22:13:18;23.50;85.90
68354;DHT22;55274;43.060;25.618;2023-08-21T22:15:44;23.50;86.30
68354;DHT22;55274;43.060;25.618;2023-08-21T22:18:10;23.40;86.50
68354;DHT22;55274;43.060;25.618;2023-08-21T22:20:36;23.30;86.80
68354;DHT22;55274;43.060;25.618;2023-08-21T22:23:03;23.20;86.70
68354;DHT22;55274;43.060;25.618;2023-08-21T22:25:29;23.20;86.60
68354;DHT22;55274;43.060;25.618;2023-08-21T22:27:55;23.20;86.80
68354;DHT22;55274;43.060;25.618;2023-08-21T22:30:21;23.10;86.90
68354;DHT22;55274;43.060;25.618;2023-08-21T22:32:47;23.10;87.00
68354;DHT22;55274;43.060;25.618;2023-08-21T22:35:13;23.00;87.00
68354;DHT22;55274;43.060;25.618;2023-08-21T22:37:39;23.10;87.10
68354;DHT22;55274;43.060;25.618;2023-08-21T22:40:05;23.10;87.10
68354;DHT22;55274;43.060;25.618;2023-08-21T22:42:31;23.10;87.10
68354;DHT22;55274;43.060;25.618;2023-08-21T22:44:59;23.00;87.20
68354;DHT22;55274;43.060;25.618;2023-08-21T22:47:25;23.00;87.30
68354;DHT22;55274;43.060;25.618;2023-08-21T22:49:51;22.90;87.50
68354;DHT22;55274;43.060;25.618;2023-08-21T22:52:17;22.90;87.80
68354;DHT22;55274;43.060;25.618;2023-08-21T22:54:42;22.90;87.90
68354;DHT22;55274;43.060;25.618;2023-08-21T22:57:08;22.80;88.10
68354;DHT22;55274;43.060;25.618;2023-08-21T22:59:34;22.80;88.10
68354;DHT22;55274;43.060;25.618;2023-08-21T23:02:01;22.70;88.10
68354;DHT22;55274;43.060;25.618;2023-08-21T23:04:26;22.80;88.00
68354;DHT22;55274;43.060;25.618;2023-08-21T23:06:52;22.70;88.70
68354;DHT22;55274;43.060;25.618;2023-08-21T23:09:18;22.60;88.90
68354;DHT22;55274;43.060;25.618;2023-08-21T23:11:44;22.60;88.90
68354;DHT22;55274;43.060;25.618;2023-08-21T23:14:10;22.60;88.70
68354;DHT22;55274;43.060;25.618;2023-08-21T23:16:36;22.60;88.80
68354;DHT22;55274;43.060;25.618;2023-08-21T23:19:01;22.60;88.80
68354;DHT22;55274;43.060;25.618;2023-08-21T23:21:27;22.60;88.70
68354;DHT22;55274;43.060;25.618;2023-08-21T23:23:53;22.50;89.00
68354;DHT22;55274;43.060;25.618;2023-08-21T23:26:19;22.50;89.30
68354;DHT22;55274;43.060;25.618;2023-08-21T23:28:44;22.50;89.40
68354;DHT22;55274;43.060;25.618;2023-08-21T23:31:10;22.40;89.70
68354;DHT22;55274;43.060;25.618;2023-08-21T23:33:36;22.40;89.80
68354;DHT22;55274;43.060;25.618;2023-08-21T23:36:02;22.40;89.90
68354;DHT22;55274;43.060;25.618;2023-08-21T23:38:28;22.40;90.10
68354;DHT22;55274;43.060;25.618;2023-08-21T23:40:54;22.40;90.10
68354;DHT22;55274;43.060;25.618;2023-08-21T23:43:20;22.40;89.80
68354;DHT22;55274;43.060;25.618;2023-08-21T23:45:46;22.40;90.20
68354;DHT22;55274;43.060;25.618;2023-08-21T23:48:12;22.30;90.40
68354;DHT22;55274;43.060;25.618;2023-08-21T23:50:38;22.30;90.90
68354;DHT22;55274;43.060;25.618;2023-08-21T23:53:06;22.20;90.90
68354;DHT22;55274;43.060;25.618;2023-08-21T23:55:36;22.20;90.60
68354;DHT22;55274;43.060;25.618;2023-08-21T23:58:04;22.20;91.00
